Time;durP1;ratioP1;P1;durP2;ratioP2;P2;SDS_P1;SDS_P2;PMS_P1;PMS_P2;Temp;Humidity;BMP_temperature;BMP_pressure;BME280_temperature;BME280_humidity;BME280_pressure;Samples;Min_cycle;Max_cycle;Signal;HPM_P1;HPM_P2
2022/02/06 00:01:12;;;;;;;;;;;;;;;21.18;40.94;100533.69;5077723;28;5126;-64
2022/02/06 00:03:38;;;;;;;;;;;;;;;21.17;40.77;100520.72;5076177;28;4400;-64
2022/02/06 00:06:06;;;;;;;;;;;;;;;21.18;40.92;100527.19;5080846;28;5489;-64
2022/02/06 00:08:33;;;;;;;;;;;;;;;21.15;40.94;100509.09;5080658;28;5390;-64
2022/02/06 00:10:59;;;;;;;;;;;;;;;21.15;40.84;100503.34;5081482;28;5470;-65
2022/02/06 00:13:26;;;;;;;;;;;;;;;21.16;40.84;100507.69;5076377;28;4052;-65
2022/02/06 00:15:52;;;;;;;;;;;;;;;21.15;40.82;100506.22;5077980;28;5506;-64
2022/02/06 00:18:18;;;;;;;;;;;;;;;21.16;40.81;100496.19;5077745;28;4161;-64
2022/02/06 00:20:55;;;;;;;;;;;;;;;21.16;40.80;100496.19;5079647;28;4202;-64
2022/02/06 00:23:24;;;;;;;;;;;;;;;21.16;40.84;100490.41;5081442;28;4148;-64
2022/02/06 00:28:33;;;;;;;;;;;;;;;21.16;40.86;100478.91;5083626;28;4192;-64
2022/02/06 00:31:11;;;;;;;;;;;;;;;21.15;40.89;100480.31;5083008;28;5246;-64
2022/02/06 00:39:13;;;;;;;;;;;;;;;21.13;40.93;100468.72;5085810;28;5449;-64
2022/02/06 00:41:39;;;;;;;;;;;;;;;21.16;40.84;100466.66;5084618;28;4043;-64
2022/02/06 00:44:06;;;;;;;;;;;;;;;21.17;40.96;100465.25;5085648;28;4191;-65
2022/02/06 00:46:35;;;;;;;;;;;;;;;21.16;40.86;100450.13;5083182;28;4213;-64
2022/02/06 00:49:11;;;;;;;;;;;;;;;21.16;41.13;100450.13;5084448;28;4132;-65
2022/02/06 00:52:07;;;;;;;;;;;;;;;21.17;40.98;100445.84;5086777;28;4225;-64
2022/02/06 00:54:24;;;;;;;;;;;;;;;21.16;41.11;100421.31;5068919;28;6910;-64
2022/02/06 00:56:50;;;;;;;;;;;;;;;21.20;41.00;100433.00;5063533;28;4142;-64
2022/02/06 00:59:17;;;;;;;;;;;;;;;21.20;41.26;100421.47;5063015;28;5229;-64
2022/02/06 01:01:43;;;;;;;;;;;;;;;21.20;41.06;100421.47;5061766;28;4245;-64
2022/02/06 01:04:09;;;;;;;;;;;;;;;21.20;41.11;100418.59;5062477;28;4201;-64
2022/02/06 01:06:36;;;;;;;;;;;;;;;21.20;40.92;100415.72;5063877;28;4196;-64
2022/02/06 01:09:02;;;;;;;;;;;;;;;21.21;41.05;100405.69;5079981;28;4183;-64
2022/02/06 01:11:30;;;;;;;;;;;;;;;21.21;41.03;100397.03;5082323;28;4214;-64
2022/02/06 01:14:08;;;;;;;;;;;;;;;21.20;41.07;100392.69;5082200;28;4211;-63
2022/02/06 01:16:40;;;;;;;;;;;;;;;21.20;41.14;100383.31;5067069;28;4157;-63
2022/02/06 01:19:11;;;;;;;;;;;;;;;21.18;41.18;100372.44;5082413;28;4211;-64
2022/02/06 01:21:50;;;;;;;;;;;;;;;21.18;41.17;100374.59;5082845;28;4316;-64
2022/02/06 01:24:25;;;;;;;;;;;;;;;21.18;41.05;100374.59;5081471;28;4172;-63
2022/02/06 01:27:05;;;;;;;;;;;;;;;21.16;41.13;100366.63;5083261;28;4230;-63
2022/02/06 01:29:40;;;;;;;;;;;;;;;21.17;41.18;100353.72;5081180;28;4163;-64
2022/02/06 01:32:13;;;;;;;;;;;;;;;21.18;41.09;100355.16;5081531;28;4206;-63
2022/02/06 01:34:48;;;;;;;;;;;;;;;21.18;41.26;100360.94;5082691;28;4022;-63
2022/02/06 01:37:25;;;;;;;;;;;;;;;21.20;41.23;100349.50;5079489;28;4200;-64
2022/02/06 01:40:07;;;;;;;;;;;;;;;21.19;41.04;100350.91;5083363;28;4222;-64
2022/02/06 02:01:38;;;;;;;;;;;;;;;21.18;41.03;100303.34;5084702;28;5205;-63
2022/02/06 02:07:00;;;;;;;;;;;;;;;21.19;41.04;100286.81;5082606;28;3993;-65
2022/02/06 02:12:24;;;;;;;;;;;;;;;21.17;41.13;100301.16;5074935;28;4313;-66
2022/02/06 02:21:00;;;;;;;;;;;;;;;21.19;40.99;100263.78;5052818;28;4360;-63
2022/02/06 02:29:26;;;;;;;;;;;;;;;21.19;41.22;100241.50;5068012;28;5237;-63
2022/02/06 02:32:29;;;;;;;;;;;;;;;21.19;41.12;100237.84;5079485;28;4224;-63
2022/02/06 02:45:52;;;;;;;;;;;;;;;21.13;41.11;100224.00;5084727;28;4153;-63
2022/02/06 02:48:20;;;;;;;;;;;;;;;21.14;41.15;100216.84;5085783;28;4154;-63
2022/02/06 02:50:54;;;;;;;;;;;;;;;21.14;41.05;100216.84;5086502;28;5308;-63
2022/02/06 02:53:33;;;;;;;;;;;;;;;21.15;41.14;100203.94;5084582;28;4133;-63
2022/02/06 02:56:21;;;;;;;;;;;;;;;21.15;41.13;100201.06;5086486;28;4218;-64
2022/02/06 02:58:59;;;;;;;;;;;;;;;21.15;41.10;100200.31;5087597;28;4055;-63
2022/02/06 03:01:31;;;;;;;;;;;;;;;21.16;41.32;100191.00;5088114;28;4174;-63
2022/02/06 03:03:58;;;;;;;;;;;;;;;21.15;41.11;100195.28;5087028;28;4149;-64
2022/02/06 03:06:24;;;;;;;;;;;;;;;21.15;41.21;100183.78;5086473;28;4254;-63
2022/02/06 03:08:53;;;;;;;;;;;;;;;21.13;41.19;100181.56;5088304;28;4221;-63
2022/02/06 03:11:19;;;;;;;;;;;;;;;21.11;41.24;100160.59;5087966;28;4463;-63
2022/02/06 03:14:06;;;;;;;;;;;;;;;21.11;41.05;100166.38;5086830;28;5469;-64
2022/02/06 03:16:43;;;;;;;;;;;;;;;21.09;41.24;100157.66;5067630;28;4145;-63
2022/02/06 03:19:14;;;;;;;;;;;;;;;21.09;41.14;100151.91;5066167;28;4180;-63
2022/02/06 03:21:42;;;;;;;;;;;;;;;21.07;41.05;100149.72;5067633;28;4336;-64
2022/02/06 03:26:44;;;;;;;;;;;;;;;21.05;40.99;100129.50;5086629;28;4044;-63
2022/02/06 03:29:10;;;;;;;;;;;;;;;21.06;41.15;100121.59;5086413;28;4268;-63
2022/02/06 03:31:37;;;;;;;;;;;;;;;21.05;41.05;100117.22;5087846;28;4351;-64
2022/02/06 03:34:03;;;;;;;;;;;;;;;21.06;40.95;100116.56;5086331;28;4181;-66
2022/02/06 03:36:30;;;;;;;;;;;;;;;21.06;40.98;100107.94;5083365;28;4040;-66
2022/02/06 03:38:56;;;;;;;;;;;;;;;21.07;41.03;100115.16;5084687;28;4031;-66
2022/02/06 03:41:23;;;;;;;;;;;;;;;21.09;41.15;100105.84;5086102;28;4140;-65
2022/02/06 03:43:56;;;;;;;;;;;;;;;21.10;41.07;100101.56;5085607;28;4267;-66
2022/02/06 03:46:32;;;;;;;;;;;;;;;21.11;41.04;100103.03;5084443;28;5454;-66
2022/02/06 03:49:09;;;;;;;;;;;;;;;21.11;41.05;100097.28;5084559;28;4223;-67
2022/02/06 03:51:37;;;;;;;;;;;;;;;21.13;41.05;100094.47;5084914;28;4241;-66
2022/02/06 03:54:04;;;;;;;;;;;;;;;21.13;41.09;100089.44;5083058;28;4149;-67
2022/02/06 03:56:32;;;;;;;;;;;;;;;21.13;41.13;100091.59;5082182;28;4165;-63
2022/02/06 03:58:58;;;;;;;;;;;;;;;21.14;41.05;100084.41;5082874;28;4247;-66
2022/02/06 04:01:25;;;;;;;;;;;;;;;21.12;41.13;100078.63;5085811;28;4401;-66
2022/02/06 04:03:51;;;;;;;;;;;;;;;21.11;41.28;100085.75;5086120;28;4184;-65
2022/02/06 04:06:17;;;;;;;;;;;;;;;21.12;41.19;100081.50;5077823;28;4148;-65
2022/02/06 04:08:44;;;;;;;;;;;;;;;21.12;41.19;100067.09;5084728;28;5219;-65
2022/02/06 04:11:16;;;;;;;;;;;;;;;21.14;41.33;100064.25;5086555;28;4507;-65
2022/02/06 04:13:55;;;;;;;;;;;;;;;21.13;41.36;100057.03;5081308;28;4209;-65
2022/02/06 04:16:36;;;;;;;;;;;;;;;21.13;41.54;100054.16;5075590;28;4162;-65
2022/02/06 04:19:44;;;;;;;;;;;;;;;21.13;41.33;100048.41;5081413;28;4140;-65
2022/02/06 04:21:54;;;;;;;;;;;;;;;21.12;41.36;100039.03;5076320;28;6383;-65
2022/02/06 04:24:20;;;;;;;;;;;;;;;21.12;41.40;100035.44;5062359;28;5271;-65
2022/02/06 04:26:46;;;;;;;;;;;;;;;21.11;41.41;100037.56;5081487;28;5525;-66
2022/02/06 04:29:13;;;;;;;;;;;;;;;21.13;41.57;100028.97;5080182;28;4187;-66
2022/02/06 04:31:41;;;;;;;;;;;;;;;21.06;41.44;100012.22;5078795;28;5417;-66
2022/02/06 04:34:07;;;;;;;;;;;;;;;21.06;41.35;100015.81;5052656;28;968165;-66
2022/02/06 04:36:42;;;;;;;;;;;;;;;21.08;41.25;100007.25;5080992;28;4226;-66
2022/02/06 04:42:17;;;;;;;;;;;;;;;21.10;41.49;99992.19;5086688;28;4153;-66
2022/02/06 04:55:55;;;;;;;;;;;;;;;21.09;41.78;99979.19;5084365;28;4203;-66
2022/02/06 05:12:51;;;;;;;;;;;;;;;21.14;42.13;99952.00;5085010;28;4036;-67
2022/02/06 05:15:08;;;;;;;;;;;;;;;21.14;42.13;99946.22;5083615;28;4157;-66
2022/02/06 05:23:24;;;;;;;;;;;;;;;21.12;42.23;99926.03;5043041;28;4235;-67
2022/02/06 05:26:03;;;;;;;;;;;;;;;21.12;42.19;99931.81;5085041;28;4159;-66
2022/02/06 05:31:12;;;;;;;;;;;;;;;21.12;42.33;99932.53;5085421;28;4102;-66
2022/02/06 05:33:39;;;;;;;;;;;;;;;21.12;42.34;99926.03;5083510;28;4275;-66
2022/02/06 05:36:09;;;;;;;;;;;;;;;21.12;42.25;99917.41;5085134;28;4219;-66
2022/02/06 05:38:35;;;;;;;;;;;;;;;21.10;42.26;99917.34;5084770;28;4048;-66
2022/02/06 05:41:03;;;;;;;;;;;;;;;21.11;42.28;99907.28;5081706;28;4208;-67
2022/02/06 05:43:29;;;;;;;;;;;;;;;21.09;42.32;99907.22;5085969;28;5359;-66
2022/02/06 05:45:55;;;;;;;;;;;;;;;21.09;42.28;99905.09;5083098;28;4322;-66
2022/02/06 05:48:22;;;;;;;;;;;;;;;21.12;42.32;99897.25;5080181;28;4259;-66
2022/02/06 05:50:48;;;;;;;;;;;;;;;21.12;42.42;99891.50;5084310;28;4237;-66
2022/02/06 05:53:15;;;;;;;;;;;;;;;21.13;42.42;99898.72;5083977;28;4492;-66
2022/02/06 05:55:42;;;;;;;;;;;;;;;21.15;42.41;99889.41;5084617;28;4139;-66
2022/02/06 05:58:08;;;;;;;;;;;;;;;21.15;42.69;99884.38;5080300;28;4123;-66
2022/02/06 06:00:34;;;;;;;;;;;;;;;21.15;42.69;99895.91;5082275;28;4233;-67
2022/02/06 06:03:01;;;;;;;;;;;;;;;21.16;42.84;99890.88;5080556;28;4243;-67
2022/02/06 06:05:28;;;;;;;;;;;;;;;21.13;42.68;99882.16;5083387;28;4156;-66
2022/02/06 06:07:54;;;;;;;;;;;;;;;21.15;42.74;99884.38;5084802;28;4251;-66
2022/02/06 06:10:24;;;;;;;;;;;;;;;21.14;42.62;99882.91;5085965;28;4181;-66
2022/02/06 06:12:51;;;;;;;;;;;;;;;21.14;42.65;99891.53;5084943;28;4229;-66
2022/02/06 06:15:17;;;;;;;;;;;;;;;21.13;42.61;99870.66;5082635;28;4138;-66
2022/02/06 06:17:45;;;;;;;;;;;;;;;21.15;42.61;99866.38;5080434;28;4153;-66
2022/02/06 06:20:15;;;;;;;;;;;;;;;21.14;42.77;99868.50;5081496;28;6372;-66
2022/02/06 06:22:41;;;;;;;;;;;;;;;21.14;42.60;99862.75;5084961;28;4296;-66
2022/02/06 06:25:08;;;;;;;;;;;;;;;21.13;42.52;99855.53;5082060;28;5123;-66
2022/02/06 06:27:34;;;;;;;;;;;;;;;21.12;42.40;99851.19;5082625;28;5269;-66
2022/02/06 06:30:00;;;;;;;;;;;;;;;21.12;42.58;99857.69;5079774;28;4308;-66
2022/02/06 06:32:27;;;;;;;;;;;;;;;21.13;42.51;99846.91;5085319;28;4046;-66
2022/02/06 06:34:55;;;;;;;;;;;;;;;21.12;42.53;99846.16;5081562;28;4036;-66
2022/02/06 06:37:21;;;;;;;;;;;;;;;21.13;42.56;99835.38;5082687;28;4153;-66
2022/02/06 06:39:48;;;;;;;;;;;;;;;21.16;42.74;99839.78;5083244;28;5284;-66
2022/02/06 06:42:19;;;;;;;;;;;;;;;21.16;42.63;99839.06;5083517;28;4055;-66
2022/02/06 06:44:46;;;;;;;;;;;;;;;21.17;42.52;99829.00;5077242;28;5491;-66
2022/02/06 06:47:12;;;;;;;;;;;;;;;21.16;42.73;99839.78;5063364;28;4196;-66
2022/02/06 06:49:39;;;;;;;;;;;;;;;21.16;42.67;99828.25;5078701;28;4063;-66
2022/02/06 06:52:05;;;;;;;;;;;;;;;21.09;42.66;99824.47;5079575;28;4564;-67
2022/02/06 06:54:42;;;;;;;;;;;;;;;21.07;42.76;99833.09;5080967;28;4401;-66
2022/02/06 07:02:18;;;;;;;;;;;;;;;21.05;42.72;99818.66;5082256;28;5150;-67
2022/02/06 07:04:47;;;;;;;;;;;;;;;21.07;42.90;99815.06;5082309;28;4302;-66
2022/02/06 07:07:14;;;;;;;;;;;;;;;21.06;43.04;99805.72;5080868;28;4141;-66
2022/02/06 07:09:40;;;;;;;;;;;;;;;21.07;42.77;99815.06;5076509;28;4267;-66
2022/02/06 07:12:09;;;;;;;;;;;;;;;21.05;42.89;99817.88;5055492;28;4402;-66
2022/02/06 07:14:36;;;;;;;;;;;;;;;21.03;42.65;99803.47;5080096;28;4428;-66
2022/02/06 07:17:02;;;;;;;;;;;;;;;21.03;42.82;99798.44;5080428;28;4151;-66
2022/02/06 07:19:34;;;;;;;;;;;;;;;21.11;42.58;99800.78;5082462;28;4240;-66
2022/02/06 07:22:01;;;;;;;;;;;;;;;21.07;42.67;99803.56;5079136;28;4211;-66
2022/02/06 07:24:28;;;;;;;;;;;;;;;21.06;42.86;99802.09;5079469;28;4191;-66
2022/02/06 07:26:58;;;;;;;;;;;;;;;21.07;42.75;99803.56;5082851;28;4303;-66
2022/02/06 07:29:24;;;;;;;;;;;;;;;21.09;42.95;99792.09;5084884;28;4142;-66
2022/02/06 07:31:53;;;;;;;;;;;;;;;21.09;42.72;99786.34;5083725;28;3979;-66
2022/02/06 07:34:19;;;;;;;;;;;;;;;21.15;42.69;99792.25;5084083;28;5215;-66
2022/02/06 07:36:45;;;;;;;;;;;;;;;21.15;42.63;99780.75;5084330;28;4197;-65
2022/02/06 07:39:12;;;;;;;;;;;;;;;21.15;42.47;99780.75;5085142;28;4191;-66
2022/02/06 07:41:38;;;;;;;;;;;;;;;21.15;42.65;99775.00;5083773;28;4123;-66
2022/02/06 07:44:06;;;;;;;;;;;;;;;21.16;42.65;99776.44;5078552;28;4130;-66
2022/02/06 07:46:42;;;;;;;;;;;;;;;21.16;42.63;99764.94;5082283;28;4223;-66
2022/02/06 07:49:08;;;;;;;;;;;;;;;21.16;42.68;99770.69;5083772;28;6340;-67
2022/02/06 07:51:36;;;;;;;;;;;;;;;21.15;42.61;99766.34;5083296;28;4209;-66
2022/02/06 07:54:03;;;;;;;;;;;;;;;21.16;42.65;99762.06;5083217;28;4137;-66
2022/02/06 07:56:30;;;;;;;;;;;;;;;21.16;42.69;99752.69;5081719;28;5273;-66
2022/02/06 07:58:56;;;;;;;;;;;;;;;21.15;42.63;99757.00;5082521;28;4403;-67
2022/02/06 08:01:22;;;;;;;;;;;;;;;21.13;42.59;99749.75;5082657;28;5326;-66
2022/02/06 08:03:49;;;;;;;;;;;;;;;21.13;42.58;99752.63;5083456;28;4363;-66
2022/02/06 08:06:15;;;;;;;;;;;;;;;21.14;42.48;99750.47;5083156;28;5295;-66
2022/02/06 08:08:42;;;;;;;;;;;;;;;21.16;42.71;99750.53;5060099;28;4140;-69
2022/02/06 08:11:12;;;;;;;;;;;;;;;21.19;42.77;99740.56;5085121;28;4171;-67
2022/02/06 08:13:42;;;;;;;;;;;;;;;21.20;42.90;99733.38;5084624;28;5273;-67
2022/02/06 08:16:08;;;;;;;;;;;;;;;21.20;43.05;99733.38;5083243;28;4089;-67
2022/02/06 08:18:39;;;;;;;;;;;;;;;21.24;42.65;99727.00;5085003;28;4158;-66
2022/02/06 08:21:08;;;;;;;;;;;;;;;21.23;42.77;99729.13;5085768;28;4182;-65
2022/02/06 08:23:46;;;;;;;;;;;;;;;21.21;42.77;99717.59;5081205;28;5539;-65
2022/02/06 08:26:14;;;;;;;;;;;;;;;21.20;42.86;99724.00;5084397;28;5232;-65
2022/02/06 08:28:40;;;;;;;;;;;;;;;21.18;42.91;99724.69;5085903;28;4228;-65
2022/02/06 08:31:07;;;;;;;;;;;;;;;21.19;42.78;99719.66;5085681;28;4137;-66
2022/02/06 08:33:33;;;;;;;;;;;;;;;21.19;42.70;99717.53;5086799;28;4087;-66
2022/02/06 08:36:00;;;;;;;;;;;;;;;21.19;42.68;99711.03;5086930;28;4222;-66
2022/02/06 08:38:26;;;;;;;;;;;;;;;21.19;42.73;99703.13;5083954;28;4081;-66
2022/02/06 08:40:53;;;;;;;;;;;;;;;21.19;42.61;99696.63;5082731;28;4239;-65
2022/02/06 08:43:19;;;;;;;;;;;;;;;21.19;42.56;99703.13;5084397;28;4804;-65
2022/02/06 08:45:46;;;;;;;;;;;;;;;21.18;42.83;99693.03;5085744;28;4160;-65
2022/02/06 08:48:12;;;;;;;;;;;;;;;21.18;42.64;99698.06;5084731;28;5426;-65
2022/02/06 08:50:38;;;;;;;;;;;;;;;21.18;42.50;99695.91;5086555;28;5282;-65
2022/02/06 08:53:05;;;;;;;;;;;;;;;21.19;42.41;99693.75;5083463;28;4380;-66
2022/02/06 08:55:31;;;;;;;;;;;;;;;21.18;42.52;99687.25;5086015;28;4125;-65
2022/02/06 08:57:57;;;;;;;;;;;;;;;21.19;42.46;99694.50;5085969;28;5270;-65
2022/02/06 09:00:24;;;;;;;;;;;;;;;21.20;42.72;99695.94;5079266;28;4196;-64
2022/02/06 09:02:51;;;;;;;;;;;;;;;21.23;43.64;99694.56;5080959;28;5155;-64
2022/02/06 09:05:17;;;;;;;;;;;;;;;21.22;43.71;99687.38;5082097;28;4337;-66
2022/02/06 09:07:44;;;;;;;;;;;;;;;21.22;43.61;99680.88;5084655;28;4183;-65
2022/02/06 09:10:12;;;;;;;;;;;;;;;21.20;43.70;99667.16;5082592;28;4172;-64
2022/02/06 09:12:43;;;;;;;;;;;;;;;21.20;43.81;99672.19;5084002;28;4209;-64
2022/02/06 09:15:10;;;;;;;;;;;;;;;21.19;43.65;99667.84;5082904;28;4196;-64
2022/02/06 09:17:36;;;;;;;;;;;;;;;21.19;43.28;99668.59;5085742;28;5397;-64
2022/02/06 09:20:02;;;;;;;;;;;;;;;21.20;43.50;99672.91;5080222;28;4212;-63
2022/02/06 09:22:31;;;;;;;;;;;;;;;21.20;43.74;99667.16;5082093;28;5224;-65
2022/02/06 09:24:58;;;;;;;;;;;;;;;21.24;44.22;99661.50;5075531;28;5216;-66
2022/02/06 09:27:25;;;;;;;;;;;;;;;21.27;44.29;99660.13;5080517;28;4202;-65
2022/02/06 09:29:52;;;;;;;;;;;;;;;21.31;45.26;99666.00;5082816;28;4292;-65
2022/02/06 09:37:29;;;;;;;;;;;;;;;21.33;46.07;99642.28;5081582;28;5164;-65
2022/02/06 09:39:56;;;;;;;;;;;;;;;21.32;46.31;99640.81;5085233;28;4205;-65
2022/02/06 09:42:23;;;;;;;;;;;;;;;21.32;45.40;99632.16;5081103;28;4246;-65
2022/02/06 09:44:49;;;;;;;;;;;;;;;21.33;45.29;99628.63;5059793;28;4088;-65
2022/02/06 09:47:25;;;;;;;;;;;;;;;21.33;46.07;99617.09;5076586;28;4244;-65
2022/02/06 09:49:51;;;;;;;;;;;;;;;21.33;45.92;99616.38;5080812;28;4189;-65
2022/02/06 09:52:25;;;;;;;;;;;;;;;21.33;45.75;99614.22;5084281;28;4186;-65
2022/02/06 09:55:01;;;;;;;;;;;;;;;21.33;46.08;99602.69;5079563;28;4547;-64
2022/02/06 09:57:30;;;;;;;;;;;;;;;21.34;45.83;99606.31;5080368;28;4046;-65
2022/02/06 09:59:57;;;;;;;;;;;;;;;21.34;45.73;99594.78;5084687;28;4036;-65
2022/02/06 10:02:24;;;;;;;;;;;;;;;21.36;45.56;99585.47;5081242;28;4162;-65
2022/02/06 10:04:51;;;;;;;;;;;;;;;21.33;45.72;99596.94;5084447;28;4093;-65
2022/02/06 10:07:18;;;;;;;;;;;;;;;21.36;45.57;99589.06;5064482;28;4190;-65
2022/02/06 10:09:52;;;;;;;;;;;;;;;21.38;45.79;99582.63;5065511;28;4409;-65
2022/02/06 10:12:19;;;;;;;;;;;;;;;21.38;45.73;99571.13;5084056;28;4125;-65
2022/02/06 10:14:46;;;;;;;;;;;;;;;21.38;45.95;99571.13;5059486;28;3989;-65
2022/02/06 10:17:13;;;;;;;;;;;;;;;21.38;45.98;99571.84;5079919;28;4143;-65
2022/02/06 10:20:08;;;;;;;;;;;;;;;21.38;45.77;99566.09;5079522;28;4464;-64
2022/02/06 10:22:40;;;;;;;;;;;;;;;21.40;45.99;99574.03;5043884;28;4207;-65
2022/02/06 10:25:07;;;;;;;;;;;;;;;21.39;45.87;99553.13;5061605;28;4219;-66
2022/02/06 10:27:45;;;;;;;;;;;;;;;21.40;45.78;99551.00;5066307;28;4181;-65
2022/02/06 10:30:19;;;;;;;;;;;;;;;21.39;45.51;99535.84;5083179;28;6282;-65
2022/02/06 10:32:46;;;;;;;;;;;;;;;21.39;45.70;99532.25;5081046;28;4143;-65
2022/02/06 10:35:12;;;;;;;;;;;;;;;21.38;45.67;99531.53;5079214;28;4139;-65
2022/02/06 10:37:38;;;;;;;;;;;;;;;21.38;45.83;99522.16;5084470;28;4044;-63
2022/02/06 10:40:07;;;;;;;;;;;;;;;21.39;45.57;99520.75;5084646;28;4298;-63
2022/02/06 10:42:35;;;;;;;;;;;;;;;21.38;45.59;99507.78;5084676;28;4242;-63
2022/02/06 10:45:20;;;;;;;;;;;;;;;21.38;45.51;99504.91;5073834;28;4144;-64
2022/02/06 10:47:47;;;;;;;;;;;;;;;21.38;46.07;99485.47;5083773;28;4213;-64
2022/02/06 10:50:15;;;;;;;;;;;;;;;21.40;45.73;99484.78;5083770;28;4228;-64
2022/02/06 10:52:41;;;;;;;;;;;;;;;21.40;45.84;99481.91;5082898;28;4312;-63
2022/02/06 10:55:08;;;;;;;;;;;;;;;21.40;45.92;99481.91;5077687;28;4020;-64
2022/02/06 10:57:35;;;;;;;;;;;;;;;21.42;45.74;99474.06;5078249;28;4133;-64
2022/02/06 11:00:03;;;;;;;;;;;;;;;21.22;44.61;99467.84;5083085;28;4172;-65
2022/02/06 11:02:30;;;;;;;;;;;;;;;20.96;43.78;99460.13;5086415;28;4148;-65
2022/02/06 11:05:00;;;;;;;;;;;;;;;21.11;43.81;99458.28;5087073;28;4156;-64
2022/02/06 11:07:28;;;;;;;;;;;;;;;21.22;44.15;99450.59;5069247;28;4294;-64
2022/02/06 11:10:04;;;;;;;;;;;;;;;21.26;44.41;99450.69;5085399;28;4224;-64
2022/02/06 11:12:30;;;;;;;;;;;;;;;21.29;44.77;99434.88;5084834;28;4229;-64
2022/02/06 11:15:01;;;;;;;;;;;;;;;21.28;44.90;99425.53;5077420;28;4230;-65
2022/02/06 11:17:30;;;;;;;;;;;;;;;21.29;44.24;99415.47;5084123;28;4029;-65
2022/02/06 11:19:57;;;;;;;;;;;;;;;21.32;44.41;99419.09;5086950;28;4185;-65
2022/02/06 11:22:24;;;;;;;;;;;;;;;21.32;44.67;99419.84;5087162;28;4100;-65
2022/02/06 11:24:50;;;;;;;;;;;;;;;21.32;44.97;99402.56;5085980;28;5219;-65
2022/02/06 11:27:18;;;;;;;;;;;;;;;21.32;44.68;99396.06;5085122;28;4149;-65
2022/02/06 11:29:45;;;;;;;;;;;;;;;21.32;45.03;99391.03;5085651;28;4188;-65
2022/02/06 11:32:12;;;;;;;;;;;;;;;21.32;44.95;99379.53;5084562;28;4220;-65
2022/02/06 11:34:42;;;;;;;;;;;;;;;21.33;44.97;99375.25;5086142;28;4061;-65
2022/02/06 11:45:59;;;;;;;;;;;;;;;21.23;44.52;99354.88;5085492;28;4213;-64
2022/02/06 11:48:29;;;;;;;;;;;;;;;21.28;44.63;99342.03;5063581;28;4294;-64
2022/02/06 11:50:55;;;;;;;;;;;;;;;21.30;45.21;99336.31;5087265;28;4221;-64
2022/02/06 11:53:29;;;;;;;;;;;;;;;21.31;45.29;99326.25;5087254;28;5209;-64
2022/02/06 11:55:57;;;;;;;;;;;;;;;21.32;45.52;99321.94;5087293;28;4268;-64
2022/02/06 11:58:31;;;;;;;;;;;;;;;21.32;46.13;99315.47;5085310;28;4248;-65
2022/02/06 12:01:07;;;;;;;;;;;;;;;21.30;46.46;99304.66;5079702;28;5595;-73
2022/02/06 12:04:12;;;;;;;;;;;;;;;21.29;45.66;99314.69;5087594;28;4265;-64
2022/02/06 12:06:47;;;;;;;;;;;;;;;21.31;45.50;99306.09;4983344;28;5408;-65
2022/02/06 12:09:17;;;;;;;;;;;;;;;21.32;45.38;99298.91;4983255;28;5612;-63
2022/02/06 12:12:05;;;;;;;;;;;;;;;21.34;46.62;99298.22;5045878;28;4253;-65
2022/02/06 12:14:37;;;;;;;;;;;;;;;21.31;46.16;99283.06;5065897;28;4190;-64
2022/02/06 12:18:05;;;;;;;;;;;;;;;21.30;46.75;99272.25;5084651;28;4267;-66
2022/02/06 12:20:04;;;;;;;;;;;;;;;21.25;46.31;99271.44;5073871;28;4286;-66
2022/02/06 12:22:36;;;;;;;;;;;;;;;21.26;46.55;99261.41;5083807;28;4157;-61
2022/02/06 12:25:18;;;;;;;;;;;;;;;21.29;46.91;99248.50;5082121;28;4147;-64
2022/02/06 12:27:45;;;;;;;;;;;;;;;21.30;47.24;99249.97;5078569;28;5221;-63
2022/02/06 12:30:18;;;;;;;;;;;;;;;21.30;47.97;99232.69;5060792;28;4152;-63
2022/02/06 12:32:44;;;;;;;;;;;;;;;21.22;46.57;99220.31;5067507;28;4136;-62
2022/02/06 12:38:05;;;;;;;;;;;;;;;21.17;45.41;99215.91;5083530;28;4385;-64
2022/02/06 12:40:31;;;;;;;;;;;;;;;21.18;45.39;99189.28;5085867;28;5314;-62
2022/02/06 12:43:00;;;;;;;;;;;;;;;21.28;45.92;99189.47;5084153;28;5385;-61
2022/02/06 12:45:27;;;;;;;;;;;;;;;21.39;46.71;99170.19;5080606;28;4132;-63
2022/02/06 12:47:54;;;;;;;;;;;;;;;21.53;47.56;99158.19;5072099;28;4057;-67
2022/02/06 12:50:21;;;;;;;;;;;;;;;21.59;47.78;99157.56;5060725;28;4173;-67
2022/02/06 12:52:47;;;;;;;;;;;;;;;21.56;47.38;99150.31;5084181;28;4137;-67
2022/02/06 12:55:19;;;;;;;;;;;;;;;21.59;47.14;99138.13;5078934;28;4158;-61
2022/02/06 12:57:46;;;;;;;;;;;;;;;21.65;47.72;99125.97;5079842;28;4219;-69
2022/02/06 13:00:23;;;;;;;;;;;;;;;21.69;48.14;99126.75;5080905;28;4207;-70
2022/02/06 13:02:49;;;;;;;;;;;;;;;21.80;47.96;99103.81;5082069;28;4057;-67
2022/02/06 13:05:15;;;;;;;;;;;;;;;21.79;47.79;99099.50;5074229;28;4034;-66
2022/02/06 13:07:42;;;;;;;;;;;;;;;21.70;46.25;99082.09;5074788;28;5412;-68
2022/02/06 13:10:09;;;;;;;;;;;;;;;21.74;46.19;99087.91;5082460;28;5250;-66
2022/02/06 13:12:42;;;;;;;;;;;;;;;21.86;46.26;99069.31;5059032;28;4190;-64
2022/02/06 13:15:35;;;;;;;;;;;;;;;21.85;46.46;99059.97;5077114;28;5255;-64
2022/02/06 13:18:13;;;;;;;;;;;;;;;21.84;46.17;99067.13;5074044;28;4178;-63
2022/02/06 13:21:00;;;;;;;;;;;;;;;21.80;46.18;99049.09;5077654;28;4138;-63
2022/02/06 13:23:44;;;;;;;;;;;;;;;21.84;46.09;99037.59;5074563;28;5185;-65
2022/02/06 13:26:23;;;;;;;;;;;;;;;21.91;46.06;99030.47;5076301;28;4129;-65
2022/02/06 13:29:01;;;;;;;;;;;;;;;21.90;45.99;99029.03;5071904;28;4211;-65
2022/02/06 13:36:37;;;;;;;;;;;;;;;21.67;45.69;99008.63;5056039;28;4190;-71
2022/02/06 13:39:09;;;;;;;;;;;;;;;21.63;45.89;98990.56;5057444;28;4168;-70
2022/02/06 13:41:35;;;;;;;;;;;;;;;21.59;46.17;98973.97;5055337;28;4249;-71
2022/02/06 13:44:02;;;;;;;;;;;;;;;21.60;46.63;98984.06;5056048;28;4231;-72
2022/02/06 13:46:31;;;;;;;;;;;;;;;21.62;47.14;98966.78;5046267;28;4254;-71
2022/02/06 13:48:57;;;;;;;;;;;;;;;21.69;47.43;98951.03;5047335;28;4151;-67
2022/02/06 13:51:28;;;;;;;;;;;;;;;21.75;46.63;98944.59;5059220;28;4194;-68
2022/02/06 13:54:00;;;;;;;;;;;;;;;21.69;45.99;98942.41;5056772;28;4147;-67
2022/02/06 13:56:28;;;;;;;;;;;;;;;21.67;45.74;98927.22;5071683;28;4134;-66
2022/02/06 13:58:57;;;;;;;;;;;;;;;21.66;45.81;98925.78;5076445;28;6236;-67
2022/02/06 14:01:26;;;;;;;;;;;;;;;21.70;45.75;98925.84;5077746;28;4205;-67
2022/02/06 14:03:55;;;;;;;;;;;;;;;21.64;45.70;98914.97;5054162;28;4246;-68
2022/02/06 14:06:32;;;;;;;;;;;;;;;21.60;45.95;98894.78;5058639;28;4205;-67
2022/02/06 14:09:22;;;;;;;;;;;;;;;21.59;46.00;98889.72;5073747;28;4265;-67
2022/02/06 14:11:58;;;;;;;;;;;;;;;21.58;46.02;98894.75;5078235;28;4259;-67
2022/02/06 14:14:25;;;;;;;;;;;;;;;21.57;45.90;98870.25;5076020;28;4168;-67
2022/02/06 14:17:12;;;;;;;;;;;;;;;21.55;45.95;98876.00;5078464;28;4216;-67
2022/02/06 14:19:44;;;;;;;;;;;;;;;21.54;45.84;98871.69;5059635;28;4218;-67
2022/02/06 14:22:14;;;;;;;;;;;;;;;21.52;45.74;98860.13;5076704;28;5480;-66
2022/02/06 14:24:53;;;;;;;;;;;;;;;21.51;45.81;98850.06;5058740;28;4046;-66
2022/02/06 14:27:31;;;;;;;;;;;;;;;21.48;45.83;98845.69;5078400;28;4118;-67
2022/02/06 14:29:58;;;;;;;;;;;;;;;21.52;45.78;98842.84;5077666;28;4181;-67
2022/02/06 14:32:25;;;;;;;;;;;;;;;21.51;45.90;98841.41;5079630;28;4156;-66
2022/02/06 14:34:55;;;;;;;;;;;;;;;21.50;45.73;98837.06;5078922;28;4212;-66
2022/02/06 14:37:23;;;;;;;;;;;;;;;21.50;45.85;98834.19;5080997;28;5357;-66
2022/02/06 14:39:59;;;;;;;;;;;;;;;21.48;45.72;98826.25;5079016;28;4258;-62
2022/02/06 14:42:27;;;;;;;;;;;;;;;21.48;45.85;98816.91;5081634;28;4147;-62
2022/02/06 14:45:05;;;;;;;;;;;;;;;21.47;45.69;98815.47;5080538;28;4162;-62
2022/02/06 14:47:31;;;;;;;;;;;;;;;21.47;45.65;98806.81;5081275;28;4069;-62
2022/02/06 14:49:57;;;;;;;;;;;;;;;21.46;45.61;98793.84;5082298;28;4101;-63
2022/02/06 14:52:24;;;;;;;;;;;;;;;21.45;45.61;98786.66;5081421;28;4073;-62
2022/02/06 14:54:50;;;;;;;;;;;;;;;21.45;45.73;98792.41;5082246;28;4354;-62
2022/02/06 14:57:17;;;;;;;;;;;;;;;21.46;45.48;98776.56;5081802;28;4139;-62
2022/02/06 14:59:43;;;;;;;;;;;;;;;21.46;45.59;98776.56;5082424;28;4155;-63
2022/02/06 15:02:09;;;;;;;;;;;;;;;21.47;45.62;98763.63;5080936;28;6289;-62
2022/02/06 15:04:36;;;;;;;;;;;;;;;21.48;45.48;98765.06;5085283;28;4403;-62
2022/02/06 15:07:02;;;;;;;;;;;;;;;21.47;45.70;98749.97;5080353;28;4270;-62
2022/02/06 15:09:28;;;;;;;;;;;;;;;21.47;45.60;98747.06;5079482;28;4215;-68
2022/02/06 15:11:55;;;;;;;;;;;;;;;21.47;45.56;98744.19;5082369;28;4151;-64